createdAt,value
2023-05-20T06:38:56.006Z,19.67
2023-05-20T06:39:57.600Z,20.98
2023-05-20T06:41:00.029Z,18.45
2023-05-20T06:42:01.736Z,18.75
2023-05-20T06:43:03.848Z,18.60
2023-05-20T06:44:05.775Z,19.08
2023-05-20T06:45:07.929Z,19.63
2023-05-20T06:46:10.006Z,18.52
2023-05-20T06:47:11.962Z,20.35
2023-05-20T06:48:14.026Z,18.90
2023-05-20T06:49:15.829Z,17.98
2023-05-20T06:50:18.119Z,18.23
2023-05-20T06:51:20.046Z,18.88
2023-05-20T06:52:21.672Z,19.35
2023-05-20T06:53:26.367Z,20.10
2023-05-20T06:54:28.187Z,18.50
2023-05-20T06:55:30.154Z,20.10
2023-05-20T06:56:31.832Z,19.00
2023-05-20T06:57:33.564Z,18.90
2023-05-20T06:58:35.363Z,19.33
2023-05-20T06:59:37.508Z,19.73
2023-05-20T07:00:39.536Z,19.77
2023-05-20T07:01:41.409Z,20.60
2023-05-20T07:02:43.775Z,19.98
2023-05-20T07:03:45.795Z,19.00
2023-05-20T07:04:47.572Z,19.58
2023-05-20T07:05:51.487Z,19.63
2023-05-20T07:06:53.195Z,20.40
2023-05-20T07:07:56.539Z,19.33
2023-05-20T07:08:58.368Z,19.45
2023-05-20T07:10:00.626Z,19.25
2023-05-20T07:11:02.319Z,20.83
2023-05-20T07:12:04.210Z,19.00
2023-05-20T07:13:06.767Z,19.02
2023-05-20T07:14:11.652Z,19.67
2023-05-20T07:15:13.376Z,18.95
2023-05-20T07:16:16.289Z,18.83
2023-05-20T07:17:18.033Z,19.55
2023-05-20T07:18:21.843Z,20.35
2023-05-20T07:19:24.918Z,18.48
2023-05-20T07:20:28.107Z,19.35
2023-05-20T07:21:29.845Z,18.15
2023-05-20T07:22:31.813Z,19.00
2023-05-20T07:23:33.462Z,17.98
2023-05-20T07:24:35.967Z,18.77
2023-05-20T07:25:37.764Z,18.65
2023-05-20T07:26:40.827Z,18.33
2023-05-20T07:27:43.063Z,17.60
2023-05-20T07:28:48.674Z,18.77
2023-05-20T07:29:51.690Z,25.20
2023-05-20T07:30:56.166Z,18.05
2023-05-20T07:31:58.638Z,17.70
2023-05-20T07:33:01.989Z,16.40
2023-05-20T07:34:03.846Z,17.45
2023-05-20T07:35:05.838Z,16.63
2023-05-20T07:36:10.472Z,17.63
2023-05-20T07:37:15.163Z,19.30
2023-05-20T07:38:16.808Z,20.25
2023-05-20T07:39:18.574Z,17.17
2023-05-20T07:40:22.764Z,19.77
2023-05-20T07:41:25.593Z,17.63
2023-05-20T07:42:27.272Z,18.77
2023-05-20T07:43:29.256Z,17.80
2023-05-20T07:44:33.980Z,19.77
2023-05-20T07:45:37.401Z,17.70
2023-05-20T07:57:06.744Z,17.20
2023-05-20T07:59:11.644Z,16.20
2023-05-20T08:00:13.717Z,17.05
2023-05-20T08:01:15.409Z,16.42
2023-05-20T08:02:18.645Z,15.73
2023-05-20T08:03:22.431Z,19.35
2023-05-20T08:04:24.258Z,14.68
2023-05-20T08:05:26.213Z,15.45
2023-05-20T08:06:29.758Z,16.00
2023-05-20T08:07:32.154Z,16.33
2023-05-20T08:08:34.142Z,15.32
2023-05-20T08:09:35.837Z,15.30
2023-05-20T08:10:37.838Z,15.95
2023-05-20T08:11:39.859Z,18.38
2023-05-20T08:12:41.471Z,15.57
2023-05-20T08:13:43.942Z,17.45
2023-05-20T08:14:46.012Z,15.85
2023-05-20T08:15:49.931Z,16.20
2023-05-20T08:16:54.652Z,17.30
2023-05-20T08:17:59.311Z,15.45
2023-05-20T08:19:02.200Z,20.85
2023-05-20T08:20:04.596Z,17.05
2023-05-20T08:21:09.904Z,16.52
2023-05-20T08:22:13.495Z,16.42
2023-05-20T08:23:15.457Z,17.45
2023-05-20T08:24:17.209Z,15.77
2023-05-20T08:25:20.627Z,18.52
2023-05-20T08:26:23.283Z,16.98
2023-05-20T08:27:27.524Z,15.88
2023-05-20T08:28:30.595Z,17.35
2023-05-20T08:29:32.269Z,16.77
2023-05-20T08:30:37.261Z,17.27
2023-05-20T08:31:39.008Z,17.40
2023-05-20T08:32:43.415Z,19.92
2023-05-20T08:33:48.366Z,16.98
2023-05-20T08:34:50.580Z,18.38
2023-05-20T08:35:52.620Z,17.92
2023-05-20T08:36:54.787Z,14.77
2023-05-20T08:37:58.731Z,15.32
2023-05-20T08:39:00.390Z,18.52
2023-05-20T08:40:02.224Z,15.25
2023-05-20T08:41:04.162Z,15.70
2023-05-20T08:42:08.519Z,15.43
2023-05-20T10:40:08.426Z,23.50
2023-05-20T10:41:11.619Z,15.00
2023-05-20T10:42:13.930Z,12.35
2023-05-20T10:43:25.594Z,14.48
2023-05-20T10:44:27.193Z,12.70
2023-05-20T10:45:29.422Z,14.57
2023-05-20T10:46:40.088Z,13.13
2023-05-20T10:47:55.613Z,13.30
2023-05-20T10:48:58.398Z,12.73
2023-05-20T10:50:02.194Z,13.23
2023-05-20T10:51:09.132Z,13.43
2023-05-20T10:52:10.967Z,14.13
2023-05-20T10:53:29.434Z,13.80
2023-05-20T10:54:36.270Z,13.50
2023-05-20T10:55:38.817Z,11.68
2023-05-20T10:56:41.355Z,12.25
2023-05-20T10:57:43.076Z,12.20
2023-05-20T10:58:45.258Z,12.10
2023-05-20T10:59:48.008Z,11.65
2023-05-20T11:00:51.061Z,12.63
2023-05-20T11:01:53.735Z,12.85
2023-05-20T11:02:56.809Z,11.00
2023-05-20T11:04:00.993Z,12.90
2023-05-20T11:05:04.259Z,12.30
2023-05-20T11:06:13.142Z,12.20
2023-05-20T11:07:25.149Z,11.55
2023-05-20T11:08:29.881Z,13.02
2023-05-20T11:09:34.762Z,18.60
2023-05-20T11:10:37.612Z,13.18
2023-05-20T11:11:39.321Z,13.95
2023-05-20T11:12:41.953Z,12.77
2023-05-20T11:13:43.686Z,12.80
2023-05-20T11:14:45.445Z,11.63
2023-05-20T11:15:49.200Z,13.82
2023-05-20T11:16:56.203Z,12.35
2023-05-20T11:18:01.676Z,13.30
2023-05-20T11:19:03.670Z,13.20
2023-05-20T11:20:05.993Z,12.23
2023-05-20T11:21:08.252Z,14.32
2023-05-20T11:22:11.581Z,11.93
2023-05-20T11:23:14.238Z,13.40
2023-05-20T11:24:23.276Z,13.35
2023-05-20T11:25:25.713Z,12.23
2023-05-20T11:26:29.287Z,11.40
2023-05-20T11:27:30.935Z,13.50
2023-05-20T11:28:33.726Z,12.77
2023-05-20T11:29:35.652Z,12.10
2023-05-20T11:30:37.533Z,13.52
2023-05-20T11:31:39.677Z,11.48
2023-05-20T11:32:41.724Z,12.35
2023-05-20T11:33:43.721Z,13.38
2023-05-20T11:34:45.322Z,11.85
2023-05-20T11:35:49.371Z,16.05
2023-05-20T11:36:57.539Z,13.17
2023-05-20T11:38:06.617Z,13.52
2023-05-20T11:39:09.999Z,15.00
2023-05-20T11:40:13.488Z,14.60
2023-05-20T11:41:16.042Z,14.10
2023-05-20T11:42:17.719Z,14.73
2023-05-20T11:43:22.351Z,13.70
2023-05-20T11:44:24.807Z,14.70
2023-05-20T11:45:27.995Z,15.15
2023-05-20T11:46:29.949Z,14.02
2023-05-20T11:47:33.038Z,15.18
2023-05-20T11:48:34.830Z,14.55
2023-05-20T11:49:43.532Z,14.57
2023-05-20T11:50:46.054Z,13.30
2023-05-20T11:51:47.841Z,12.98
2023-05-20T11:52:57.885Z,12.07
2023-05-20T11:54:01.978Z,12.75
2023-05-20T11:55:07.065Z,12.50
2023-05-20T11:56:08.876Z,12.45
2023-05-20T11:57:13.651Z,13.68
2023-05-20T11:58:29.805Z,13.30
2023-05-20T20:24:06.636Z,22.88
2023-05-20T20:25:08.760Z,21.55
2023-05-20T20:26:11.814Z,23.60
2023-05-20T20:29:55.448Z,21.77
2023-05-20T20:31:05.634Z,21.70
2023-05-20T20:32:21.657Z,25.40
2023-05-20T20:48:09.450Z,21.38
2023-05-20T20:49:11.361Z,25.10
2023-05-20T20:50:13.407Z,22.23
2023-05-20T20:51:16.083Z,20.02
2023-05-20T20:52:17.733Z,23.35
2023-05-20T20:53:19.487Z,21.38
2023-05-20T20:54:22.156Z,22.33
2023-05-20T20:55:23.910Z,21.88
2023-05-20T20:56:25.997Z,19.75
2023-05-20T20:57:29.755Z,20.50
2023-05-20T20:58:35.469Z,21.95
2023-05-20T20:59:37.164Z,21.35
2023-05-20T21:00:40.506Z,21.65
2023-05-20T21:01:42.475Z,20.33
2023-05-20T21:02:44.314Z,21.45
2023-05-20T21:03:46.357Z,21.38
2023-05-20T21:04:48.460Z,18.52
2023-05-20T21:05:50.612Z,18.80
2023-05-20T21:06:52.838Z,22.50
2023-05-20T21:07:58.492Z,21.88
2023-05-20T21:09:02.252Z,21.92
2023-05-20T21:10:04.406Z,22.70
2023-05-20T21:11:06.375Z,25.10
2023-05-20T21:12:08.337Z,24.15
2023-05-20T21:13:09.981Z,25.35
2023-05-20T21:14:12.205Z,22.48
2023-05-20T21:15:15.153Z,22.33
2023-05-20T21:16:16.880Z,23.55
2023-05-20T21:17:18.685Z,23.83
2023-05-20T21:18:24.392Z,22.08
2023-05-20T21:19:26.814Z,23.60
2023-05-20T21:20:28.640Z,21.20
2023-05-20T21:21:31.092Z,20.52
2023-05-20T21:22:32.729Z,21.17
2023-05-20T21:23:34.401Z,20.48
2023-05-20T21:24:36.155Z,21.02
2023-05-20T21:25:37.968Z,20.25
2023-05-20T21:26:40.150Z,21.20
2023-05-20T21:27:41.876Z,17.67
2023-05-20T21:31:49.055Z,17.90
2023-05-20T21:32:50.872Z,18.13
2023-05-20T21:33:52.555Z,14.88
2023-05-20T21:34:55.693Z,17.80
2023-05-20T21:35:58.489Z,18.55
2023-05-20T21:37:00.122Z,17.73
2023-05-20T21:38:01.829Z,19.27
2023-05-20T21:39:03.490Z,17.27
2023-05-20T21:40:05.680Z,18.95
2023-05-20T21:41:07.822Z,20.20
2023-05-20T21:42:09.713Z,23.85
2023-05-20T21:43:11.436Z,21.40
2023-05-20T21:44:13.077Z,21.60
2023-05-20T21:45:14.826Z,19.38
2023-05-20T21:46:16.444Z,21.58
2023-05-20T21:47:20.826Z,23.08
2023-05-20T21:48:22.640Z,22.02
2023-05-20T21:49:24.449Z,21.30
2023-05-20T21:50:26.320Z,21.05
2023-05-20T21:51:27.926Z,20.55
2023-05-20T21:52:29.887Z,22.55
2023-05-20T21:53:31.609Z,25.98
2023-05-20T21:54:33.265Z,20.45
2023-05-20T21:55:35.149Z,25.88
2023-05-20T21:56:37.015Z,23.95
2023-05-20T21:57:38.694Z,22.95
2023-05-20T21:58:42.065Z,22.52
2023-05-20T21:59:45.004Z,20.50
2023-05-20T22:00:46.860Z,20.25
2023-05-20T22:01:50.648Z,19.58
2023-05-20T22:02:53.304Z,19.73
2023-05-20T22:03:57.128Z,18.80
2023-05-20T22:05:00.505Z,17.55
2023-05-20T22:06:05.277Z,18.80
